Time;durP1;ratioP1;P1;durP2;ratioP2;P2;SDS_P1;SDS_P2;PMS_P1;PMS_P2;Temp;Humidity;BMP_temperature;BMP_pressure;BME280_temperature;BME280_humidity;BME280_pressure;Samples;Min_cycle;Max_cycle;Signal;HPM_P1;HPM_P2
2021/06/25 00:00:12;;;;;;;8.88;3.22;;;;;;;18.50;70.98;97090.69;1786970;80;25777;-88
2021/06/25 00:02:41;;;;;;;6.80;2.80;;;;;;;18.50;71.15;97094.78;1787411;80;26260;-88
2021/06/25 00:05:09;;;;;;;7.28;3.10;;;;;;;18.43;71.00;97095.59;1787214;79;25701;-86
2021/06/25 00:07:37;;;;;;;5.62;3.33;;;;;;;18.24;71.07;97093.34;1787265;80;26419;-88
2021/06/25 00:10:07;;;;;;;7.22;3.05;;;;;;;18.10;71.42;97077.19;1787111;79;27419;-88
2021/06/25 00:12:34;;;;;;;22.27;4.25;;;;;;;18.12;71.82;97054.50;1774034;79;25663;-88
2021/06/25 00:15:56;;;;;;;14.15;3.50;;;;;;;18.13;71.92;97057.52;1761809;80;25729;-90
2021/06/25 00:18:23;;;;;;;7.15;3.20;;;;;;;18.15;71.86;97064.08;1765963;80;25820;-86
2021/06/25 00:20:49;;;;;;;5.92;3.00;;;;;;;18.17;71.93;97062.73;1754709;80;26300;-89
2021/06/25 00:23:16;;;;;;;7.72;3.58;;;;;;;18.05;71.90;97040.83;1756413;80;27855;-86
2021/06/25 00:25:42;;;;;;;7.92;3.35;;;;;;;17.98;72.08;97031.53;1755883;81;26374;-86
2021/06/25 00:28:09;;;;;;;6.75;3.67;;;;;;;17.99;72.29;97038.06;1756023;81;25707;-87
2021/06/25 00:30:35;;;;;;;9.40;4.35;;;;;;;17.96;72.34;97043.27;1756068;81;26193;-87
2021/06/25 00:33:02;;;;;;;6.33;3.95;;;;;;;17.98;72.50;97037.81;1755946;80;25707;-86
2021/06/25 00:35:29;;;;;;;6.97;3.70;;;;;;;18.02;72.57;97049.55;1738186;81;27339;-86
2021/06/25 00:37:55;;;;;;;7.65;4.00;;;;;;;18.04;72.52;97055.03;1747578;80;25679;-87
2021/06/25 00:40:22;;;;;;;9.00;3.62;;;;;;;18.04;72.53;97049.56;1760460;80;25703;-85
2021/06/25 00:42:48;;;;;;;8.48;3.70;;;;;;;17.98;72.37;97047.38;1755976;80;25730;-86
2021/06/25 00:45:19;;;;;;;7.83;4.67;;;;;;;17.91;72.44;97052.24;1756083;80;25857;-86
2021/06/25 00:47:49;;;;;;;9.93;4.47;;;;;;;17.88;72.55;97058.77;1774078;80;28012;-87
2021/06/25 00:50:20;;;;;;;9.43;4.47;;;;;;;17.88;72.66;97056.04;1789173;80;25753;-85
2021/06/25 00:52:52;;;;;;;9.53;4.50;;;;;;;17.84;72.60;97045.40;1790275;79;25778;-86
2021/06/25 00:55:20;;;;;;;3.65;3.30;;;;;;;17.82;72.65;97047.02;1790294;79;25743;-85
2021/06/25 00:57:47;;;;;;;7.87;3.10;;;;;;;17.84;72.78;97061.78;1790282;78;26431;-86
2021/06/25 01:00:15;;;;;;;7.20;3.20;;;;;;;17.82;72.72;97065.31;1789869;80;27381;-86
2021/06/25 01:02:42;;;;;;;4.97;3.60;;;;;;;17.71;72.45;97067.71;1790023;80;25561;-86
2021/06/25 01:05:10;;;;;;;7.87;3.90;;;;;;;17.64;72.78;97062.47;1790250;78;25654;-87
2021/06/25 01:07:37;;;;;;;5.85;3.40;;;;;;;17.66;72.96;97042.56;1789310;79;25815;-86
2021/06/25 01:10:10;;;;;;;8.03;4.08;;;;;;;17.69;73.00;97033.03;1788250;79;25725;-87
2021/06/25 01:12:44;;;;;;;5.22;3.70;;;;;;;17.68;73.03;97028.66;1790169;80;27354;-87
2021/06/25 01:15:12;;;;;;;6.95;4.33;;;;;;;17.64;73.04;97031.09;1790144;80;25668;-87
2021/06/25 01:17:42;;;;;;;10.75;4.12;;;;;;;17.64;73.12;97025.09;1790297;80;25699;-86
2021/06/25 01:20:25;;;;;;;8.88;4.20;;;;;;;17.67;73.22;97022.92;1789888;78;25739;-85
2021/06/25 01:22:52;;;;;;;6.12;4.15;;;;;;;17.67;73.18;97024.28;1790171;80;25773;-85
2021/06/25 01:25:26;;;;;;;4.72;4.20;;;;;;;17.66;73.26;97019.91;1790136;80;27401;-85
2021/06/25 01:27:57;;;;;;;7.60;3.98;;;;;;;17.67;73.29;97012.00;1789863;79;25664;-85
2021/06/25 01:30:29;;;;;;;8.83;4.45;;;;;;;17.67;73.34;97005.17;1789926;79;25656;-85
2021/06/25 01:32:59;;;;;;;9.63;4.30;;;;;;;17.66;73.34;97004.89;1790717;79;26336;-88
2021/06/25 01:35:26;;;;;;;8.78;4.00;;;;;;;17.61;73.30;96999.68;1787272;79;25699;-85
2021/06/25 01:37:52;;;;;;;8.05;4.03;;;;;;;17.59;73.35;97000.48;1776195;80;27524;-86
2021/06/25 01:40:20;;;;;;;10.75;5.12;;;;;;;17.55;73.38;97003.45;1754332;78;25228;-85
2021/06/25 01:42:48;;;;;;;8.88;3.83;;;;;;;17.52;73.36;96997.16;1745622;80;26406;-85
2021/06/25 01:45:19;;;;;;;10.10;3.85;;;;;;;17.46;73.40;96983.22;1756059;80;25818;-85
2021/06/25 01:47:47;;;;;;;7.90;4.05;;;;;;;17.42;73.53;96982.10;1786553;79;25661;-85
2021/06/25 01:50:22;;;;;;;5.55;4.80;;;;;;;17.39;73.68;96990.81;1776238;78;27395;-87
2021/06/25 01:53:00;;;;;;;5.72;3.85;;;;;;;17.37;73.77;96987.55;1774557;78;25872;-86
2021/06/25 01:55:26;;;;;;;5.50;4.20;;;;;;;17.29;73.73;96960.75;1755745;80;25683;-87
2021/06/25 01:57:54;;;;;;;6.28;4.35;;;;;;;17.27;74.09;96945.19;1756082;81;25758;-86
2021/06/25 02:00:21;;;;;;;7.37;4.22;;;;;;;17.30;74.13;96946.03;1756060;80;25688;-87
2021/06/25 02:02:48;;;;;;;6.47;4.53;;;;;;;17.30;74.17;96954.21;1767457;80;28207;-84
2021/06/25 02:05:16;;;;;;;7.20;4.33;;;;;;;17.33;74.05;96967.33;1777269;79;25723;-85
2021/06/25 02:07:43;;;;;;;6.55;4.47;;;;;;;17.32;74.12;96976.59;1755974;81;26346;-84
2021/06/25 02:10:11;;;;;;;6.42;4.37;;;;;;;17.29;74.23;96979.84;1756023;81;25803;-84
2021/06/25 02:12:39;;;;;;;6.50;4.62;;;;;;;17.24;74.31;96977.11;1744099;81;26245;-86
2021/06/25 02:15:08;;;;;;;14.38;4.65;;;;;;;17.26;74.48;96970.85;1750611;81;27537;-86
2021/06/25 02:17:38;;;;;;;8.70;4.58;;;;;;;17.31;74.48;96955.03;1755910;81;26467;-87
2021/06/25 02:20:08;;;;;;;6.45;4.67;;;;;;;17.27;74.52;96958.83;1755480;81;25289;-86
2021/06/25 02:22:35;;;;;;;10.48;4.62;;;;;;;17.18;74.51;96965.88;1769970;80;25662;-85
2021/06/25 02:25:04;;;;;;;8.93;5.00;;;;;;;17.12;74.66;96966.41;1758491;81;26344;-86
2021/06/25 02:27:30;;;;;;;8.35;3.92;;;;;;;17.12;74.88;96962.85;1753903;80;27419;-86
2021/06/25 02:29:57;;;;;;;7.17;4.62;;;;;;;17.11;74.97;96967.48;1759092;80;25692;-85
2021/06/25 02:32:23;;;;;;;8.43;4.85;;;;;;;17.17;75.12;96975.14;1759344;80;25767;-86
2021/06/25 02:34:50;;;;;;;9.00;5.15;;;;;;;17.21;75.21;96970.81;1758935;81;26357;-86
2021/06/25 02:37:17;;;;;;;7.12;4.85;;;;;;;17.24;75.19;96956.11;1759025;80;26259;-87
2021/06/25 02:39:43;;;;;;;8.83;5.20;;;;;;;17.27;75.19;96956.92;1765687;80;27413;-86
2021/06/25 02:42:10;;;;;;;7.28;4.55;;;;;;;17.31;75.11;96953.67;1758173;80;25655;-86
2021/06/25 02:44:52;;;;;;;6.17;4.60;;;;;;;17.35;75.06;96958.34;1754034;80;25690;-87
2021/06/25 02:47:18;;;;;;;6.58;4.95;;;;;;;17.42;74.97;96960.81;1768075;80;26189;-85
2021/06/25 02:49:45;;;;;;;11.45;6.05;;;;;;;17.48;74.91;96959.77;1758574;80;25260;-86
2021/06/25 02:52:11;;;;;;;10.05;5.20;;;;;;;17.47;74.85;96960.31;1759061;81;27410;-86
2021/06/25 02:54:38;;;;;;;9.10;5.30;;;;;;;17.42;74.97;96967.09;1758807;80;25679;-86
2021/06/25 02:57:06;;;;;;;10.45;4.62;;;;;;;17.33;75.02;96969.23;1775841;80;25780;-90
2021/06/25 02:59:33;;;;;;;10.55;5.40;;;;;;;17.30;75.10;96962.39;1759203;80;25656;-84
2021/06/25 03:01:59;;;;;;;9.90;5.08;;;;;;;17.33;75.21;96964.60;1758896;80;25726;-85
2021/06/25 03:04:26;;;;;;;8.88;4.83;;;;;;;17.30;75.19;96965.13;1759102;80;27417;-86
2021/06/25 03:06:52;;;;;;;7.70;4.55;;;;;;;17.25;75.39;96967.30;1758734;80;25748;-88
2021/06/25 03:09:19;;;;;;;11.73;4.67;;;;;;;17.19;75.44;96974.34;1759112;80;25748;-87
2021/06/25 03:11:46;;;;;;;8.58;5.58;;;;;;;17.21;75.67;96977.63;1765586;80;25817;-88
2021/06/25 03:14:12;;;;;;;8.93;4.30;;;;;;;17.24;75.78;96984.75;1759111;80;25675;-87
2021/06/25 03:16:39;;;;;;;8.85;4.35;;;;;;;17.28;75.72;96987.75;1758800;80;27446;-83
2021/06/25 03:19:05;;;;;;;7.47;4.10;;;;;;;17.28;75.55;96985.02;1758640;80;25797;-81
2021/06/25 03:21:32;;;;;;;11.53;4.17;;;;;;;17.26;75.33;96981.22;1759264;80;25789;-84
2021/06/25 03:23:58;;;;;;;7.00;4.00;;;;;;;17.27;75.43;96979.28;1759050;80;26204;-85
2021/06/25 03:26:25;;;;;;;8.43;4.53;;;;;;;17.32;75.38;96988.05;1759002;80;25683;-85
2021/06/25 03:28:52;;;;;;;5.95;3.98;;;;;;;17.30;75.25;97000.59;1758565;80;27398;-84
2021/06/25 03:31:21;;;;;;;6.62;4.20;;;;;;;17.27;75.35;97006.56;1775784;80;26317;-82
2021/06/25 03:33:48;;;;;;;6.60;4.20;;;;;;;17.23;75.40;97008.19;1758810;80;26520;-89
2021/06/25 03:36:15;;;;;;;9.30;4.40;;;;;;;17.21;75.52;96996.72;1759230;81;25974;-88
2021/06/25 03:38:41;;;;;;;8.88;4.05;;;;;;;17.24;75.67;96985.29;1758998;81;25677;-90
2021/06/25 03:41:08;;;;;;;7.17;4.12;;;;;;;17.27;75.72;96991.56;1775797;80;28313;-88
2021/06/25 03:43:34;;;;;;;9.23;4.37;;;;;;;17.33;75.75;96999.24;1759115;80;25808;-88
2021/06/25 03:46:01;;;;;;;7.10;4.50;;;;;;;17.39;75.76;97001.72;1758888;80;25737;-88
2021/06/25 03:48:28;;;;;;;7.10;4.50;;;;;;;17.38;75.77;97001.47;1759282;81;25719;-88
2021/06/25 03:50:54;;;;;;;10.10;4.50;;;;;;;17.37;75.87;96997.09;1758831;80;25758;-85
2021/06/25 03:53:21;;;;;;;7.50;4.87;;;;;;;17.41;75.92;96998.73;1758999;81;27421;-87
2021/06/25 03:58:32;;;;;;;7.33;3.92;;;;;;;17.36;76.01;96999.55;1758975;81;25244;-85
2021/06/25 04:00:59;;;;;;;6.08;4.30;;;;;;;17.39;75.92;96998.20;1758886;80;26469;-87
2021/06/25 04:03:26;;;;;;;10.58;4.30;;;;;;;17.34;76.03;96990.80;1758936;80;25840;-87
2021/06/25 04:05:52;;;;;;;8.33;4.40;;;;;;;17.31;76.08;96994.05;1759142;81;27365;-87
2021/06/25 04:08:19;;;;;;;6.92;4.12;;;;;;;17.32;76.21;96989.41;1758858;80;25232;-87
2021/06/25 04:10:45;;;;;;;5.67;3.90;;;;;;;17.33;76.36;96985.06;1759026;80;25663;-86
2021/06/25 04:13:12;;;;;;;7.95;4.40;;;;;;;17.36;76.52;96983.17;1758759;80;25756;-86
2021/06/25 04:15:38;;;;;;;7.58;4.42;;;;;;;17.37;76.56;96988.91;1759008;81;25749;-86
2021/06/25 04:18:05;;;;;;;5.42;4.15;;;;;;;17.39;76.62;96992.17;1758774;80;27367;-86
2021/06/25 04:20:31;;;;;;;7.22;4.72;;;;;;;17.43;76.53;96987.84;1756575;80;26042;-85
2021/06/25 04:22:58;;;;;;;8.95;4.60;;;;;;;17.49;76.53;96991.43;1755742;81;25777;-86
2021/06/25 04:25:25;;;;;;;9.53;4.17;;;;;;;17.49;76.52;96990.89;1755985;80;25797;-87
2021/06/25 04:27:51;;;;;;;8.55;4.62;;;;;;;17.52;76.60;96985.42;1756046;80;25733;-86
2021/06/25 04:30:18;;;;;;;10.55;4.90;;;;;;;17.54;76.59;96979.98;1787069;80;27424;-86
2021/06/25 04:32:46;;;;;;;10.75;4.53;;;;;;;17.55;76.46;96969.34;1754312;78;25981;-86
2021/06/25 04:35:12;;;;;;;7.97;4.10;;;;;;;17.59;76.52;96959.55;1776063;78;25698;-87
2021/06/25 04:37:40;;;;;;;8.05;5.33;;;;;;;17.64;76.48;96963.67;1776157;78;26082;-87
2021/06/25 04:40:07;;;;;;;5.30;4.28;;;;;;;17.70;76.48;96962.34;1775896;79;25639;-86
2021/06/25 04:42:34;;;;;;;8.60;4.80;;;;;;;17.76;76.37;96954.44;1776008;78;27386;-87
2021/06/25 04:45:00;;;;;;;5.65;4.80;;;;;;;17.80;76.31;96944.63;1787171;79;25702;-86
2021/06/25 04:47:27;;;;;;;11.05;5.03;;;;;;;17.79;76.36;96932.06;1776097;78;25235;-86
2021/06/25 04:49:53;;;;;;;10.18;5.35;;;;;;;17.76;76.51;96930.69;1760865;78;25418;-86
2021/06/25 04:52:20;;;;;;;9.90;5.15;;;;;;;17.79;76.51;96925.24;1761265;80;25722;-87
2021/06/25 04:54:47;;;;;;;12.18;5.55;;;;;;;17.83;76.43;96921.72;1775838;80;27410;-86
2021/06/25 04:57:13;;;;;;;10.43;4.62;;;;;;;17.88;76.34;96914.06;1775867;78;25848;-84
2021/06/25 04:59:40;;;;;;;11.88;5.53;;;;;;;17.90;76.19;96909.16;1776084;78;25782;-86
2021/06/25 05:02:07;;;;;;;9.10;5.42;;;;;;;17.82;76.12;96909.70;1776070;78;25727;-85
2021/06/25 05:04:34;;;;;;;10.65;5.58;;;;;;;17.81;76.28;96902.59;1755937;80;25768;-86
2021/06/25 05:07:00;;;;;;;10.98;6.10;;;;;;;17.88;76.33;96905.87;1786835;80;27403;-85
2021/06/25 05:09:27;;;;;;;8.38;5.75;;;;;;;17.95;76.37;96900.99;1775890;80;25716;-85
2021/06/25 05:11:54;;;;;;;10.50;6.33;;;;;;;17.99;76.31;96901.53;1744990;80;38600;-83
2021/06/25 05:14:21;;;;;;;11.38;6.50;;;;;;;17.97;76.35;96892.81;1775753;80;26248;-83
2021/06/25 05:16:47;;;;;;;10.72;6.65;;;;;;;17.98;76.44;96889.53;1776009;78;25215;-84
2021/06/25 05:19:14;;;;;;;8.93;6.28;;;;;;;18.01;76.42;96883.51;1776501;78;27504;-85
2021/06/25 05:21:40;;;;;;;13.28;7.40;;;;;;;18.06;76.55;96879.98;1761180;80;25748;-82
2021/06/25 05:24:08;;;;;;;11.08;6.35;;;;;;;18.14;76.56;96871.23;1761531;80;25848;-83
2021/06/25 05:26:34;;;;;;;13.10;7.20;;;;;;;18.21;76.50;96867.16;1761489;80;25786;-83
2021/06/25 05:29:02;;;;;;;12.93;7.25;;;;;;;18.26;76.50;96873.97;1761557;80;25812;-83
2021/06/25 05:31:28;;;;;;;10.75;6.75;;;;;;;18.32;76.51;96864.70;1761585;80;27572;-84
2021/06/25 05:33:57;;;;;;;12.95;6.67;;;;;;;18.40;76.59;96867.96;1761451;80;25720;-82
2021/06/25 05:36:24;;;;;;;9.95;6.10;;;;;;;18.45;76.52;96863.88;1761557;80;25790;-83
2021/06/25 05:38:51;;;;;;;11.57;7.08;;;;;;;18.48;76.45;96856.47;1792924;80;25819;-82
2021/06/25 05:41:17;;;;;;;12.30;7.50;;;;;;;18.57;76.69;96861.67;1758322;80;25743;-82
2021/06/25 05:43:44;;;;;;;9.45;6.83;;;;;;;18.64;76.87;96855.40;1763836;80;27519;-81
2021/06/25 05:46:12;;;;;;;16.93;7.05;;;;;;;18.68;76.83;96848.30;1742129;80;25749;-82
2021/06/25 05:48:39;;;;;;;12.37;7.15;;;;;;;18.72;76.62;96846.63;1763809;80;25295;-82
2021/06/25 05:51:06;;;;;;;13.95;6.58;;;;;;;18.79;76.87;96845.80;1752055;80;25751;-82
2021/06/25 05:53:33;;;;;;;11.55;6.92;;;;;;;18.88;76.93;96841.40;1761426;80;25772;-83
2021/06/25 05:56:00;;;;;;;11.38;6.45;;;;;;;18.94;76.62;96840.30;1761595;81;27334;-81
2021/06/25 05:58:26;;;;;;;12.37;6.47;;;;;;;19.02;76.62;96842.45;1761407;80;25976;-81
2021/06/25 06:00:56;;;;;;;9.50;6.10;;;;;;;19.09;76.36;96843.52;1761280;80;25703;-82
2021/06/25 06:03:23;;;;;;;9.50;5.92;;;;;;;19.17;76.21;96839.40;1761520;80;26271;-82
2021/06/25 06:05:49;;;;;;;19.15;6.05;;;;;;;;;;1761619;80;25277;-82
2021/06/25 06:08:16;;;;;;;10.78;6.15;;;;;;;19.33;75.81;96838.22;1772661;80;27572;-81
2021/06/25 06:10:42;;;;;;;8.70;6.75;;;;;;;19.39;76.00;96839.84;1761534;80;25814;-81
2021/06/25 06:13:09;;;;;;;11.93;6.15;;;;;;;19.48;76.25;96842.25;1761462;81;25703;-85
2021/06/25 06:15:35;;;;;;;11.45;6.47;;;;;;;19.56;75.99;96841.68;1761655;81;25764;-83
2021/06/25 06:18:04;;;;;;;11.78;6.80;;;;;;;19.65;75.88;96846.86;1761680;80;25784;-79
2021/06/25 06:20:31;;;;;;;13.85;6.65;;;;;;;19.73;75.72;96851.73;1758923;80;27410;-83
2021/06/25 06:31:22;;;;;;;9.83;5.78;;;;;;;20.03;75.12;96858.13;1785747;79;25715;-81
2021/06/25 06:33:55;;;;;;;10.72;5.72;;;;;;;20.08;75.02;96854.78;1767072;78;27374;-80
2021/06/25 06:36:28;;;;;;;7.40;5.00;;;;;;;20.18;74.94;96860.73;1765133;80;25772;-82
2021/06/25 06:38:56;;;;;;;;;;;;;;;20.20;74.74;96863.19;1778792;79;25789;-81
2021/06/25 06:41:24;;;;;;;8.65;5.40;;;;;;;20.23;74.68;96863.44;1776231;80;25652;-81
2021/06/25 06:43:51;;;;;;;13.28;5.80;;;;;;;20.26;74.82;96872.47;1756024;80;25726;-84
2021/06/25 06:46:18;;;;;;;11.55;5.90;;;;;;;20.29;74.54;96880.64;1756044;80;27440;-81
2021/06/25 06:48:46;;;;;;;15.55;5.90;;;;;;;20.28;74.30;96875.75;1755936;80;25803;-88
2021/06/25 06:51:15;;;;;;;9.50;5.25;;;;;;;20.30;74.29;96878.17;1756239;80;25730;-84
2021/06/25 06:53:43;;;;;;;9.88;5.12;;;;;;;20.35;74.10;96880.37;1755988;80;25679;-85
2021/06/25 06:56:16;;;;;;;9.63;6.12;;;;;;;20.41;73.92;96887.43;1756046;80;25672;-81
2021/06/25 06:58:45;;;;;;;10.43;6.12;;;;;;;20.46;74.09;96893.44;1733448;80;27370;-82
2021/06/25 07:01:12;;;;;;;11.33;5.50;;;;;;;20.51;74.10;96902.18;1755933;80;25683;-83
2021/06/25 07:03:38;;;;;;;8.13;5.33;;;;;;;20.58;73.95;96906.77;1756049;81;25257;-81
2021/06/25 07:06:05;;;;;;;12.45;6.00;;;;;;;20.62;73.60;96911.95;1755925;81;25672;-84
2021/06/25 07:08:33;;;;;;;9.00;5.00;;;;;;;20.68;73.51;96909.42;1756225;81;25734;-81
2021/06/25 07:11:00;;;;;;;9.38;5.20;;;;;;;20.77;73.27;96914.57;1755920;80;27513;-85
2021/06/25 07:13:27;;;;;;;12.15;5.40;;;;;;;20.86;73.14;96912.83;1756160;80;25702;-89
2021/06/25 07:15:56;;;;;;;8.45;5.60;;;;;;;20.94;73.21;96916.31;1756022;81;25252;-82
2021/06/25 07:18:24;;;;;;;9.23;5.70;;;;;;;21.02;73.06;96910.73;1755884;80;25813;-89
2021/06/25 07:20:51;;;;;;;7.85;5.08;;;;;;;21.10;73.16;96916.44;1756955;80;26305;-85
2021/06/25 07:23:18;;;;;;;9.13;5.12;;;;;;;21.21;73.05;96917.17;1752996;80;28437;-84
2021/06/25 07:25:45;;;;;;;10.23;5.62;;;;;;;21.32;72.90;96927.48;1759054;80;26128;-86
2021/06/25 07:28:12;;;;;;;13.98;5.78;;;;;;;21.42;72.39;96932.30;1758857;80;25792;-86
2021/06/25 07:30:39;;;;;;;13.48;5.60;;;;;;;21.50;72.32;96928.08;1758950;80;25872;-85
2021/06/25 07:33:05;;;;;;;11.95;5.70;;;;;;;21.61;71.98;96930.17;1758860;80;25663;-81
2021/06/25 07:35:32;;;;;;;13.08;6.30;;;;;;;21.68;71.81;96927.32;1759120;80;27501;-83
2021/06/25 07:37:59;;;;;;;10.95;5.90;;;;;;;21.77;71.62;96935.16;1758720;80;25718;-87
2021/06/25 07:40:25;;;;;;;9.20;5.50;;;;;;;21.87;71.45;96926.78;1758894;80;25881;-81
2021/06/25 07:42:52;;;;;;;6.87;5.45;;;;;;;21.98;71.29;96936.29;1758904;80;25681;-88
2021/06/25 07:45:19;;;;;;;8.28;5.42;;;;;;;22.06;71.12;96930.16;1774569;80;25643;-79
2021/06/25 07:47:46;;;;;;;7.85;5.20;;;;;;;22.19;70.85;96937.66;1759114;80;27594;-91
2021/06/25 07:50:16;;;;;;;11.97;5.75;;;;;;;22.34;70.76;96933.30;1758803;80;25699;-82
2021/06/25 07:52:43;;;;;;;8.78;5.90;;;;;;;22.52;70.70;96939.91;1759030;80;25721;-84
2021/06/25 07:55:12;;;;;;;8.85;5.83;;;;;;;22.63;70.47;96939.45;1758795;80;25797;-86
2021/06/25 07:57:43;;;;;;;9.33;5.70;;;;;;;22.71;70.63;96948.94;1759017;80;25734;-84
2021/06/25 08:00:12;;;;;;;8.45;5.40;;;;;;;22.76;70.11;96951.66;1758503;80;27365;-83
2021/06/25 08:02:39;;;;;;;10.70;5.80;;;;;;;22.69;69.84;96936.63;1744715;80;25915;-87
2021/06/25 08:05:07;;;;;;;9.78;5.58;;;;;;;22.79;69.57;96948.86;1760574;80;25821;-88
2021/06/25 08:07:34;;;;;;;8.43;5.72;;;;;;;22.79;69.62;96952.44;1758860;80;25952;-83
2021/06/25 08:10:01;;;;;;;9.75;5.15;;;;;;;22.82;69.54;96953.19;1758959;80;25711;-82
2021/06/25 08:12:28;;;;;;;7.00;5.05;;;;;;;22.79;69.17;96954.37;1758881;80;27273;-83
2021/06/25 08:14:57;;;;;;;9.13;5.03;;;;;;;22.62;68.92;96957.06;1758817;81;25993;-81
2021/06/25 08:17:23;;;;;;;7.42;4.78;;;;;;;22.55;68.83;96958.02;1758764;80;25869;-84
2021/06/25 08:19:50;;;;;;;7.28;5.25;;;;;;;22.55;68.83;96958.02;1758538;80;25828;-86
2021/06/25 08:22:16;;;;;;;11.28;5.80;;;;;;;22.34;68.43;96952.54;1756745;80;25742;-83
2021/06/25 08:24:43;;;;;;;11.43;5.70;;;;;;;22.29;68.45;96974.63;1756840;80;27385;-83
2021/06/25 08:27:09;;;;;;;10.85;6.28;;;;;;;22.15;68.34;96984.72;1755924;81;25726;-80
2021/06/25 08:29:36;;;;;;;12.40;6.55;;;;;;;22.02;68.38;96990.94;1787580;80;25726;-80
2021/06/25 08:32:03;;;;;;;12.43;6.10;;;;;;;21.90;68.34;96990.77;1787890;80;26734;-81
2021/06/25 08:34:30;;;;;;;9.65;5.97;;;;;;;21.78;68.35;96996.42;1787992;79;25716;-84
2021/06/25 08:36:58;;;;;;;10.72;6.75;;;;;;;21.68;68.41;97000.11;1787413;80;25963;-82
2021/06/25 08:39:26;;;;;;;14.03;6.22;;;;;;;21.59;68.33;96996.38;1787878;79;25882;-83
2021/06/25 08:41:53;;;;;;;10.23;5.62;;;;;;;21.55;68.42;97008.48;1787861;80;25757;-84
2021/06/25 08:44:20;;;;;;;11.48;6.55;;;;;;;21.49;68.42;97009.64;1787872;80;25828;-84
2021/06/25 08:46:47;;;;;;;10.88;6.03;;;;;;;21.38;68.50;97014.15;1787888;79;25707;-82
2021/06/25 08:49:18;;;;;;;7.65;5.25;;;;;;;21.33;68.71;97014.22;1787818;80;27565;-84
2021/06/25 08:51:49;;;;;;;10.55;5.95;;;;;;;21.32;68.74;97015.33;1787796;79;25750;-82
2021/06/25 08:54:15;;;;;;;10.05;6.00;;;;;;;21.32;68.74;97018.89;1788137;80;25667;-83
2021/06/25 08:56:42;;;;;;;8.18;6.42;;;;;;;21.35;68.88;97016.95;1787780;79;25823;-82
2021/06/25 08:59:09;;;;;;;9.98;6.33;;;;;;;21.38;68.84;97019.64;1788049;79;25713;-81
2021/06/25 09:01:37;;;;;;;7.70;6.22;;;;;;;21.36;68.73;97023.25;1787913;80;27366;-80
2021/06/25 09:04:04;;;;;;;16.23;6.65;;;;;;;21.34;68.62;97024.91;1787806;78;25615;-82
2021/06/25 09:06:34;;;;;;;13.60;6.33;;;;;;;21.32;68.71;97021.63;1787966;79;25732;-84
2021/06/25 09:09:12;;;;;;;13.75;6.67;;;;;;;21.33;68.78;97027.95;1787830;79;25719;-80
2021/06/25 09:11:43;;;;;;;11.73;5.78;;;;;;;21.31;68.80;97028.78;1787582;79;25720;-82
2021/06/25 09:14:11;;;;;;;10.08;5.97;;;;;;;21.27;68.85;97021.67;1787900;79;27375;-81
2021/06/25 09:16:39;;;;;;;7.80;5.67;;;;;;;21.29;68.91;97017.27;1754917;81;25929;-84
2021/06/25 09:19:10;;;;;;;11.25;6.40;;;;;;;21.26;68.83;97015.09;1768113;81;25765;-84
2021/06/25 09:21:41;;;;;;;12.68;6.80;;;;;;;21.25;68.80;97018.97;1756062;80;26216;-79
2021/06/25 09:24:23;;;;;;;10.98;6.58;;;;;;;21.24;68.84;97007.73;1755899;81;25850;-85
2021/06/25 09:26:53;;;;;;;10.38;6.15;;;;;;;21.18;68.86;96999.53;1756198;80;28318;-85
2021/06/25 09:29:23;;;;;;;13.98;6.65;;;;;;;21.17;68.89;96997.86;1754866;80;25746;-84
2021/06/25 09:31:58;;;;;;;10.05;6.15;;;;;;;21.14;69.01;97008.03;1739441;81;25808;-85
2021/06/25 09:34:50;;;;;;;14.13;6.35;;;;;;;21.08;69.07;97029.78;1763442;80;26129;-84
2021/06/25 09:37:19;;;;;;;8.53;6.30;;;;;;;21.05;69.14;97017.18;1781641;80;25665;-84
2021/06/25 09:40:04;;;;;;;8.53;5.85;;;;;;;20.98;69.38;97009.84;1755831;80;27530;-84
2021/06/25 09:42:31;;;;;;;12.00;6.40;;;;;;;20.97;69.62;97035.64;1755723;80;25702;-83
2021/06/25 09:45:04;;;;;;;12.33;6.72;;;;;;;21.01;69.52;97051.81;1755919;80;25727;-84
2021/06/25 09:47:37;;;;;;;11.57;6.25;;;;;;;21.07;69.40;97044.61;1755907;81;25822;-85
2021/06/25 09:50:22;;;;;;;11.08;6.12;;;;;;;21.10;69.32;97023.45;1756231;81;25741;-85
2021/06/25 09:53:03;;;;;;;8.98;6.60;;;;;;;21.04;69.31;97015.54;1744425;81;27097;-83
2021/06/25 09:55:53;;;;;;;14.10;7.43;;;;;;;21.04;69.38;97030.08;1752586;80;25279;-82
2021/06/25 09:58:40;;;;;;;8.80;6.45;;;;;;;21.02;69.25;97002.66;1755939;81;25676;-82
2021/06/25 10:01:24;;;;;;;11.75;6.30;;;;;;;21.03;69.13;97025.70;1752949;80;25897;-83
2021/06/25 10:03:57;;;;;;;12.50;6.50;;;;;;;21.05;69.10;97034.46;1770714;80;25742;-83
2021/06/25 10:06:30;;;;;;;14.63;6.50;;;;;;;21.04;69.05;97047.91;1756126;80;27386;-80
2021/06/25 10:08:58;;;;;;;10.90;6.40;;;;;;;21.05;69.00;97044.06;1755266;81;25853;-82
2021/06/25 10:11:28;;;;;;;12.10;6.58;;;;;;;21.10;69.04;97039.10;1756128;81;25753;-82
2021/06/25 10:13:58;;;;;;;11.55;6.25;;;;;;;21.12;68.89;97048.69;1755266;81;26309;-83
2021/06/25 10:16:25;;;;;;;12.98;6.55;;;;;;;21.12;68.81;97045.13;1756394;80;25768;-80
2021/06/25 10:18:55;;;;;;;11.22;6.65;;;;;;;21.11;68.84;97036.63;1756079;81;28286;-82
2021/06/25 10:21:25;;;;;;;15.48;8.73;;;;;;;21.11;68.82;97036.08;1757021;81;25713;-82
2021/06/25 10:24:02;;;;;;;13.28;7.92;;;;;;;21.13;68.92;97051.67;1761275;80;25920;-81
2021/06/25 10:26:30;;;;;;;10.65;7.70;;;;;;;21.13;68.90;97068.14;1761557;80;26345;-81
2021/06/25 10:28:57;;;;;;;11.25;7.92;;;;;;;21.08;68.76;97070.94;1761740;80;25738;-84
2021/06/25 10:31:26;;;;;;;12.05;7.90;;;;;;;21.03;68.78;97060.00;1761543;80;28359;-81
2021/06/25 10:33:55;;;;;;;11.50;7.72;;;;;;;20.97;69.02;97065.27;1761389;81;25372;-85
2021/06/25 10:36:29;;;;;;;12.50;8.08;;;;;;;20.96;69.12;97080.09;1765875;80;25841;-85
2021/06/25 10:39:05;;;;;;;13.70;7.97;;;;;;;21.00;69.19;97088.03;1761618;80;25715;-84
2021/06/25 10:41:56;;;;;;;18.50;8.58;;;;;;;21.03;69.17;97082.50;1761437;80;26707;-86
2021/06/25 10:44:44;;;;;;;17.98;8.03;;;;;;;21.05;69.19;97079.73;1761207;80;27448;-86
2021/06/25 10:47:21;;;;;;;15.03;8.15;;;;;;;21.07;69.28;97077.53;1755770;80;25832;-86
2021/06/25 10:50:07;;;;;;;19.62;8.30;;;;;;;21.04;69.28;97097.31;1761670;80;26428;-85
2021/06/25 10:52:40;;;;;;;14.13;7.75;;;;;;;21.05;69.25;97108.55;1755749;81;25796;-84
2021/06/25 10:55:12;;;;;;;16.05;8.23;;;;;;;21.03;69.21;97103.08;1746670;81;25739;-86
2021/06/25 10:57:53;;;;;;;16.32;8.65;;;;;;;21.01;69.21;97110.22;1758189;81;27992;-86
2021/06/25 11:00:40;;;;;;;13.83;8.05;;;;;;;20.93;69.45;97113.58;1788589;78;25752;-85
2021/06/25 11:03:07;;;;;;;17.77;7.95;;;;;;;20.85;69.72;97119.67;1792998;80;25816;-86
2021/06/25 11:05:35;;;;;;;13.88;7.65;;;;;;;20.76;69.97;97128.23;1764043;80;25855;-85
2021/06/25 11:08:19;;;;;;;14.23;7.65;;;;;;;20.70;70.15;97130.73;1788380;78;25791;-86
2021/06/25 11:10:56;;;;;;;12.28;8.18;;;;;;;20.68;70.25;97135.67;1761610;80;27654;-85
2021/06/25 11:13:28;;;;;;;12.18;8.15;;;;;;;20.73;70.25;97125.50;1799094;78;25637;-85
2021/06/25 11:16:03;;;;;;;14.03;8.83;;;;;;;20.78;70.24;97121.89;1776777;78;25739;-88
2021/06/25 11:18:30;;;;;;;13.40;8.10;;;;;;;20.75;70.42;97115.62;1761592;81;25797;-86
2021/06/25 11:21:07;;;;;;;14.95;8.28;;;;;;;20.75;70.51;97103.28;1761613;80;25761;-83
2021/06/25 11:23:43;;;;;;;14.20;8.15;;;;;;;20.83;70.36;97097.19;1761643;80;27348;-84
2021/06/25 11:26:25;;;;;;;12.80;7.70;;;;;;;20.90;70.18;97074.36;1759182;80;25712;-84
2021/06/25 11:28:54;;;;;;;15.78;7.83;;;;;;;21.00;70.18;97077.05;1761586;80;25793;-84
2021/06/25 11:31:28;;;;;;;12.60;7.47;;;;;;;21.06;70.11;97084.13;1761297;80;25938;-83
2021/06/25 11:34:03;;;;;;;16.05;6.75;;;;;;;21.13;70.28;97094.80;1756638;80;25799;-83
2021/06/25 11:36:52;;;;;;;15.43;7.28;;;;;;;21.15;70.09;97095.30;1758166;81;27373;-84
2021/06/25 11:39:26;;;;;;;11.30;6.75;;;;;;;21.19;70.14;97110.95;1760108;80;25844;-86
2021/06/25 11:42:09;;;;;;;10.78;7.08;;;;;;;21.28;70.00;97114.45;1761049;80;26442;-82
2021/06/25 11:44:46;;;;;;;13.65;6.78;;;;;;;21.28;69.76;97113.89;1761634;80;25701;-88
2021/06/25 11:47:24;;;;;;;9.98;6.05;;;;;;;21.23;69.63;97115.88;1761614;80;26376;-87
2021/06/25 11:50:03;;;;;;;12.25;6.37;;;;;;;21.14;69.56;97122.48;1760844;81;27446;-83